Time;durP1;ratioP1;P1;durP2;ratioP2;P2;SDS_P1;SDS_P2;PMS_P1;PMS_P2;Temp;Humidity;BMP_temperature;BMP_pressure;BME280_temperature;BME280_humidity;BME280_pressure;Samples;Min_cycle;Max_cycle;Signal;HPM_P1;HPM_P2
2023/01/01 00:02:01;;;;;;;;;2.50;2.50;;;;;15.64;49.55;100945.59;5017435;28;45204;-75
2023/01/01 00:04:27;;;;;;;;;3.00;3.00;;;;;15.69;49.63;100948.84;5025957;28;45618;-75
2023/01/01 00:06:53;;;;;;;;;4.50;3.50;;;;;15.66;49.69;100949.91;5026591;28;45402;-74
2023/01/01 00:12:03;;;;;;;;;3.00;3.00;;;;;15.66;50.16;100951.75;5023303;28;45383;-73
2023/01/01 00:14:28;;;;;;;;;3.00;3.00;;;;;15.61;49.89;100943.94;5021128;28;45521;-74
2023/01/01 00:16:54;;;;;;;;;2.00;2.00;;;;;15.62;50.27;100958.31;5031701;28;45403;-74
2023/01/01 00:19:20;;;;;;;;;4.00;3.00;;;;;15.62;50.52;100955.63;5006426;28;46302;-75
2023/01/01 00:21:46;;;;;;;;;4.00;3.50;;;;;15.63;50.63;100949.25;5027015;28;45386;-76
2023/01/01 00:24:11;;;;;;;;;5.00;4.00;;;;;15.60;50.73;100973.75;5024741;28;45423;-74
2023/01/01 00:26:36;;;;;;;;;4.50;3.50;;;;;15.60;50.85;100944.91;5026958;28;45582;-73
2023/01/01 00:29:03;;;;;;;;;3.00;3.00;;;;;15.61;50.80;100952.03;5024361;28;46048;-75
2023/01/01 05:32:36;;;;;;;;;5.00;4.50;;;;;14.65;63.16;101190.00;5049662;27;45462;-75
2023/01/01 05:35:02;;;;;;;;;6.50;4.50;;;;;14.60;63.17;101188.53;5039296;28;45351;-75
2023/01/01 05:37:28;;;;;;;;;4.75;4.75;;;;;14.62;63.07;101186.63;5057614;28;45259;-75
2023/01/01 05:39:53;;;;;;;;;6.75;4.00;;;;;14.64;62.83;101192.78;5056527;28;45343;-74
2023/01/01 05:42:18;;;;;;;;;4.50;4.50;;;;;14.64;63.13;101196.34;5056523;28;45922;-75
2023/01/01 05:44:44;;;;;;;;;4.75;4.75;;;;;14.59;63.41;101198.44;5035130;28;45447;-75
2023/01/01 05:47:10;;;;;;;;;4.75;4.75;;;;;14.51;63.40;101189.03;5056700;28;45426;-75
2023/01/01 05:49:35;;;;;;;;;5.50;4.00;;;;;14.58;63.37;101177.81;5038165;28;46091;-76
2023/01/01 05:52:01;;;;;;;;;6.75;3.00;;;;;14.67;63.48;101198.91;5056360;28;45355;-74
2023/01/01 05:54:26;;;;;;;;;2.00;2.00;;;;;14.57;63.69;101200.34;5056367;28;45311;-74
2023/01/01 05:56:51;;;;;;;;;3.25;3.00;;;;;14.57;63.67;101203.06;5056640;28;45303;-74
2023/01/01 05:59:17;;;;;;;;;3.50;3.50;;;;;14.53;63.67;101196.09;5053729;28;45427;-76
2023/01/01 06:01:42;;;;;;;;;5.50;5.25;;;;;14.64;63.70;101217.94;5055144;28;45455;-75
2023/01/01 06:04:08;;;;;;;;;4.50;4.50;;;;;14.51;63.51;101179.13;5055962;28;45303;-74
2023/01/01 06:06:33;;;;;;;;;5.75;4.25;;;;;14.65;63.37;101195.41;5056245;28;45454;-74
2023/01/01 06:09:03;;;;;;;;;6.25;5.00;;;;;14.59;63.61;101182.25;5056094;28;45282;-75
2023/01/01 06:11:30;;;;;;;;;5.00;5.00;;;;;14.59;63.46;101176.00;5056152;28;46660;-74
2023/01/01 06:13:58;;;;;;;;;6.25;4.00;;;;;14.64;63.92;101190.94;5055690;28;45505;-74
2023/01/01 06:16:24;;;;;;;;;7.50;5.00;;;;;14.59;63.88;101182.25;5037831;28;45371;-74
2023/01/01 06:18:50;;;;;;;;;8.00;6.50;;;;;14.55;63.75;101172.56;5055819;28;45388;-75
2023/01/01 06:21:17;;;;;;;;;7.75;7.00;;;;;14.63;63.92;101180.28;5054419;28;46853;-74
2023/01/01 06:23:43;;;;;;;;;4.50;3.50;;;;;14.63;63.83;101182.97;5037473;28;45431;-75
2023/01/01 06:26:18;;;;;;;;;5.50;4.50;;;;;14.60;64.15;101184.00;5048776;28;45398;-75
2023/01/01 06:28:44;;;;;;;;;4.00;4.00;;;;;14.62;64.11;101181.22;5055204;28;46035;-75
2023/01/01 06:31:13;;;;;;;;;8.25;5.00;;;;;14.58;63.91;101160.75;5055219;28;45596;-74
2023/01/01 06:33:39;;;;;;;;;6.50;5.25;;;;;14.54;64.23;101165.47;5055435;28;45423;-74
2023/01/01 06:36:08;;;;;;;;;0.00;0.00;;;;;14.50;64.21;101171.97;5056165;28;45325;-74
2023/01/01 06:38:35;;;;;;;;;5.00;5.00;;;;;14.51;64.60;101194.44;5055872;28;46503;-74
2023/01/01 06:41:02;;;;;;;;;7.00;5.75;;;;;14.35;64.46;101162.00;5055519;28;45516;-74
2023/01/01 06:43:30;;;;;;;;;5.25;5.25;;;;;14.52;64.41;101205.16;5054516;28;45685;-74
2023/01/01 06:46:06;;;;;;;;;6.25;4.25;;;;;14.36;64.61;101175.41;5055588;28;45453;-73
2023/01/01 06:48:34;;;;;;;;;4.50;4.50;;;;;14.54;64.42;101203.25;5055620;28;45444;-74
2023/01/01 06:51:09;;;;;;;;;4.00;4.00;;;;;14.51;64.45;101218.72;5052751;28;47203;-74
2023/01/01 06:53:34;;;;;;;;;3.50;3.00;;;;;14.50;64.55;101225.06;5044089;28;45379;-74
2023/01/01 06:56:00;;;;;;;;;2.75;2.75;;;;;14.52;64.78;101226.72;5055606;28;45546;-74
2023/01/01 06:58:25;;;;;;;;;6.00;4.25;;;;;14.41;65.10;101220.16;5055610;28;45426;-75
2023/01/01 07:00:51;;;;;;;;;5.50;4.00;;;;;14.43;65.16;101231.75;5053743;28;46531;-76
2023/01/01 07:03:16;;;;;;;;;6.25;4.75;;;;;14.27;65.52;101218.19;5055664;28;45366;-77
2023/01/01 07:05:41;;;;;;;;;3.00;3.00;;;;;14.21;65.18;101211.28;5037575;28;45423;-75
2023/01/01 07:08:07;;;;;;;;;9.25;5.00;;;;;14.45;65.32;101243.34;5055360;28;45468;-75
2023/01/01 07:10:32;;;;;;;;;5.50;4.00;;;;;14.50;65.01;101247.50;5055114;28;45374;-74
2023/01/01 07:12:59;;;;;;;;;3.75;3.50;;;;;14.38;65.15;101229.25;5055223;28;45375;-73
2023/01/01 07:15:25;;;;;;;;;4.00;4.00;;;;;14.39;65.14;101229.19;5037031;28;45247;-75
2023/01/01 07:17:50;;;;;;;;;4.25;2.75;;;;;14.45;65.01;101246.91;5053847;28;45552;-75
2023/01/01 07:20:16;;;;;;;;;6.75;5.50;;;;;14.50;65.01;101261.00;5054782;28;46109;-75
2023/01/01 07:22:41;;;;;;;;;3.75;3.75;;;;;14.38;65.44;101246.34;5044558;28;45353;-76
2023/01/01 07:25:09;;;;;;;;;5.25;5.25;;;;;14.45;65.40;101260.41;5042968;28;45786;-74
2023/01/01 07:27:34;;;;;;;;;3.50;3.50;;;;;14.43;65.31;101261.41;5051272;28;45656;-76
2023/01/01 07:30:00;;;;;;;;;4.50;4.25;;;;;14.47;65.48;101274.66;5054564;28;45528;-73
2023/01/01 07:32:25;;;;;;;;;5.25;3.50;;;;;14.45;65.50;101273.00;5054221;28;45457;-75
2023/01/01 07:34:50;;;;;;;;;2.25;0.00;;;;;14.30;65.78;101253.06;5054582;28;45473;-75
2023/01/01 07:37:16;;;;;;;;;5.00;4.00;;;;;14.36;65.79;101260.84;5036610;28;46162;-75
2023/01/01 07:39:41;;;;;;;;;5.25;4.50;;;;;14.36;65.86;101264.41;5054637;28;45390;-76
2023/01/01 07:42:06;;;;;;;;;9.00;4.75;;;;;14.34;65.94;101268.16;5054800;28;45249;-75
2023/01/01 07:44:32;;;;;;;;;3.50;3.00;;;;;14.40;65.82;101273.25;5043075;28;45268;-75
2023/01/01 07:47:08;;;;;;;;;4.75;3.00;;;;;14.45;65.79;101281.97;5054717;28;45306;-74
2023/01/01 07:49:33;;;;;;;;;4.00;3.00;;;;;14.45;65.90;101295.47;5054193;28;46285;-75
2023/01/01 07:51:59;;;;;;;;;4.00;3.25;;;;;14.36;65.91;101280.59;5054432;28;45565;-74
2023/01/01 07:54:24;;;;;;;;;4.00;4.00;;;;;14.45;65.91;101283.81;5054118;28;45458;-75
2023/01/01 07:56:49;;;;;;;;;4.50;4.00;;;;;14.26;65.45;101257.78;5054790;28;45279;-75
2023/01/01 07:59:15;;;;;;;;;3.00;3.00;;;;;14.46;65.68;101310.66;5053888;28;45351;-75
2023/01/01 08:01:40;;;;;;;;;6.25;4.00;;;;;14.50;65.84;101311.41;5035970;28;45287;-75
2023/01/01 08:04:05;;;;;;;;;4.75;3.50;;;;;14.46;65.53;101299.03;5054165;28;45477;-75
2023/01/01 08:06:31;;;;;;;;;4.00;4.00;;;;;14.49;65.54;101317.75;5054350;28;45505;-74
2023/01/01 08:08:56;;;;;;;;;4.50;3.00;;;;;14.53;65.56;101319.34;5054226;28;46410;-75
2023/01/01 08:11:21;;;;;;;;;2.50;2.00;;;;;14.43;65.92;101318.06;5054049;28;45300;-74
2023/01/01 08:13:47;;;;;;;;;3.25;3.25;;;;;14.47;65.89;101333.13;5054030;28;45470;-75
2023/01/01 08:16:12;;;;;;;;;5.00;5.00;;;;;14.44;65.69;101323.41;5054230;28;45845;-75
2023/01/01 08:18:38;;;;;;;;;4.25;4.25;;;;;14.47;66.05;101330.44;5053701;28;46184;-75
2023/01/01 08:21:04;;;;;;;;;1.00;0.00;;;;;14.32;66.17;101315.91;5054258;28;45397;-75
2023/01/01 08:23:29;;;;;;;;;6.00;3.00;;;;;14.52;66.02;101337.34;5037657;28;45410;-73
2023/01/01 08:26:02;;;;;;;;;4.00;4.00;;;;;14.45;66.11;101335.06;5054187;28;45637;-74
2023/01/01 08:28:28;;;;;;;;;3.00;3.00;;;;;14.37;66.09;101328.19;5055071;28;45359;-74
2023/01/01 08:30:53;;;;;;;;;5.25;3.00;;;;;14.51;66.00;101348.22;5054155;28;46313;-74
2023/01/01 08:33:19;;;;;;;;;4.00;4.00;;;;;14.48;66.03;101341.16;5054529;28;45624;-73
2023/01/01 08:35:45;;;;;;;;;3.50;2.00;;;;;14.45;66.33;101368.31;5052408;28;45633;-73
2023/01/01 08:38:10;;;;;;;;;5.00;4.75;;;;;14.42;66.45;101354.97;5053606;28;46080;-74
2023/01/01 08:40:36;;;;;;;;;6.00;4.50;;;;;14.41;66.59;101361.31;5053908;28;45355;-74
2023/01/01 08:43:01;;;;;;;;;4.50;3.50;;;;;14.47;66.34;101355.59;5057484;28;45403;-75
2023/01/01 08:45:27;;;;;;;;;4.00;4.00;;;;;14.47;66.25;101343.91;5045772;28;45385;-73
2023/01/01 08:47:52;;;;;;;;;6.00;4.75;;;;;14.49;66.15;101351.00;5057272;28;46280;-74
2023/01/01 08:50:17;;;;;;;;;3.25;3.25;;;;;14.51;66.63;101349.09;5045970;28;45304;-75
2023/01/01 08:52:43;;;;;;;;;4.25;4.25;;;;;14.57;66.14;101351.47;5055578;28;45725;-74
2023/01/01 08:55:08;;;;;;;;;6.00;4.50;;;;;14.58;65.93;101346.94;5057338;28;45316;-74
2023/01/01 08:57:34;;;;;;;;;3.75;3.50;;;;;14.58;66.16;101349.63;5056963;28;45488;-75
2023/01/01 08:59:59;;;;;;;;;4.75;4.75;;;;;14.47;66.12;101331.31;5057763;28;45393;-75
2023/01/01 09:02:25;;;;;;;;;4.00;4.00;;;;;14.59;66.00;101338.75;5058361;28;45351;-74
2023/01/01 09:04:50;;;;;;;;;6.25;5.25;;;;;14.62;66.07;101335.03;5058499;28;45346;-74
2023/01/01 09:07:15;;;;;;;;;3.25;2.50;;;;;14.58;65.78;101325.34;5057678;28;45928;-76
2023/01/01 09:09:41;;;;;;;;;6.50;6.50;;;;;14.58;66.04;101337.00;5058340;28;45347;-75
2023/01/01 09:12:08;;;;;;;;;5.50;4.00;;;;;14.52;66.28;101323.88;5057192;28;45567;-75
2023/01/01 09:14:34;;;;;;;;;7.00;3.00;;;;;14.60;66.29;101318.94;5057171;28;45412;-76
2023/01/01 09:17:00;;;;;;;;;6.00;4.00;;;;;14.60;66.39;101308.13;5056709;28;46336;-74
2023/01/01 09:19:26;;;;;;;;;5.25;5.25;;;;;14.54;66.26;101305.78;5056800;28;45443;-73
2023/01/01 09:21:52;;;;;;;;;8.00;5.00;;;;;14.66;66.27;101320.41;5055444;28;45401;-75
2023/01/01 09:24:17;;;;;;;;;5.75;4.75;;;;;14.52;66.20;101307.66;5043422;28;45330;-77
2023/01/01 09:26:44;;;;;;;;;6.00;4.50;;;;;14.44;66.43;101301.81;5056560;28;45453;-75
2023/01/01 09:29:10;;;;;;;;;3.25;3.25;;;;;14.52;66.11;101313.06;5056879;28;45305;-76
2023/01/01 09:31:35;;;;;;;;;5.75;3.25;;;;;14.47;66.03;101296.22;5057883;28;45607;-73
2023/01/01 09:34:00;;;;;;;;;5.50;4.00;;;;;14.58;66.18;101318.13;5038217;28;45419;-72
2023/01/01 09:36:31;;;;;;;;;3.50;3.50;;;;;14.58;66.55;101312.72;5056439;28;45417;-74
2023/01/01 09:38:58;;;;;;;;;5.00;3.50;;;;;14.64;66.14;101315.09;5056855;28;45431;-74
2023/01/01 09:41:35;;;;;;;;;5.00;3.50;;;;;14.70;66.04;101322.88;5056461;28;45346;-74
2023/01/01 09:44:28;;;;;;;;;4.25;3.00;;;;;14.73;66.00;101332.63;5048542;28;46333;-76
2023/01/01 09:46:59;;;;;;;;;4.75;4.00;;;;;14.76;65.85;101322.53;5029225;28;46400;-76
2023/01/01 09:49:34;;;;;;;;;4.00;4.00;;;;;14.78;65.98;101333.25;5055612;28;45474;-76
2023/01/01 09:52:04;;;;;;;;;5.75;4.50;;;;;14.80;65.82;101338.59;5055254;28;45512;-72
2023/01/01 09:54:57;;;;;;;;;5.00;4.00;;;;;14.82;65.96;101360.94;5056625;28;45485;-75
2023/01/01 09:57:29;;;;;;;;;6.25;4.00;;;;;14.85;65.83;101366.19;5050509;28;45556;-75
2023/01/01 09:59:57;;;;;;;;;6.75;4.50;;;;;14.84;65.77;101368.00;5056501;28;45303;-76
2023/01/01 10:03:03;;;;;;;;;3.00;3.00;;;;;14.83;65.58;101349.19;5038082;28;45445;-76
2023/01/01 10:05:55;;;;;;;;;3.75;3.25;;;;;14.76;65.93;101349.53;5056301;28;45450;-81
2023/01/01 10:08:40;;;;;;;;;3.75;3.75;;;;;14.83;65.63;101365.41;5038379;28;45386;-78
2023/01/01 10:11:40;;;;;;;;;3.00;3.00;;;;;14.89;65.69;101378.56;5056007;28;45378;-76
2023/01/01 10:14:20;;;;;;;;;5.25;4.00;;;;;14.86;65.68;101365.25;5056414;28;45201;-78
2023/01/01 10:16:52;;;;;;;;;4.00;3.25;;;;;14.88;65.65;101372.31;5024449;28;45756;-75
2023/01/01 10:19:48;;;;;;;;;4.75;4.75;;;;;14.86;65.50;101376.03;5056127;28;46227;-78
2023/01/01 10:22:24;;;;;;;;;5.50;3.75;;;;;14.82;65.74;101377.13;5046753;28;45562;-74
2023/01/01 10:24:55;;;;;;;;;5.00;5.00;;;;;14.80;65.81;101354.78;5051139;28;45606;-74
2023/01/01 10:27:23;;;;;;;;;6.00;4.00;;;;;14.76;65.90;101364.84;5053236;28;45339;-75
2023/01/01 10:29:51;;;;;;;;;5.75;4.75;;;;;14.74;65.72;101361.34;5046084;28;46404;-76
2023/01/01 10:32:25;;;;;;;;;3.00;1.50;;;;;14.71;65.55;101348.03;5051478;28;45517;-77
2023/01/01 10:34:51;;;;;;;;;8.00;5.00;;;;;14.69;65.69;101350.81;5034053;28;45408;-75
2023/01/01 10:37:17;;;;;;;;;6.50;4.00;;;;;14.58;65.71;101337.00;5040989;28;45585;-76
2023/01/01 10:39:45;;;;;;;;;8.25;3.25;;;;;14.68;65.81;101359.88;5054473;28;46385;-74
2023/01/01 10:42:13;;;;;;;;;6.50;6.50;;;;;14.70;65.62;101349.88;5031795;28;45519;-74
2023/01/01 10:44:38;;;;;;;;;3.25;3.25;;;;;14.68;65.50;101329.31;5039363;28;45285;-73
2023/01/01 10:47:27;;;;;;;;;4.75;4.75;;;;;14.70;65.56;101332.81;5039428;28;45396;-73
2023/01/01 10:49:55;;;;;;;;;6.75;5.00;;;;;14.74;65.45;101326.28;5049836;28;46247;-72
2023/01/01 10:52:26;;;;;;;;;4.25;4.25;;;;;14.66;65.43;101309.63;5054921;28;45214;-73
2023/01/01 10:54:51;;;;;;;;;9.50;4.75;;;;;14.77;65.72;101309.91;5043963;28;45532;-74
2023/01/01 10:57:26;;;;;;;;;6.75;5.00;;;;;14.76;65.23;101306.34;5037753;28;45510;-76
2023/01/01 10:59:52;;;;;;;;;4.00;4.00;;;;;14.80;65.36;101300.78;5053759;28;48298;-73
2023/01/01 11:02:17;;;;;;;;;4.00;4.00;;;;;14.79;65.09;101290.94;5035418;28;45599;-75
2023/01/01 11:04:42;;;;;;;;;7.00;4.00;;;;;14.75;65.43;101285.72;5052223;28;45359;-73
2023/01/01 11:07:14;;;;;;;;;6.25;5.00;;;;;14.83;65.54;101293.38;5054961;28;45373;-73
2023/01/01 11:09:39;;;;;;;;;5.50;5.50;;;;;14.88;65.19;101293.16;5049069;28;48309;-73
2023/01/01 11:12:07;;;;;;;;;3.00;3.00;;;;;14.76;65.43;101267.69;5054913;28;45452;-74
2023/01/01 11:14:47;;;;;;;;;6.00;3.00;;;;;14.80;65.38;101285.44;5043194;28;45371;-72
2023/01/01 11:17:21;;;;;;;;;3.75;3.75;;;;;14.81;65.65;101272.81;5033266;28;46138;-73
2023/01/01 11:19:48;;;;;;;;;6.75;3.00;;;;;14.68;65.27;101253.75;5045103;28;45522;-73
2023/01/01 11:22:41;;;;;;;;;3.50;3.50;;;;;14.82;65.36;101274.56;5052821;28;45494;-72
2023/01/01 11:25:28;;;;;;;;;4.00;3.25;;;;;14.79;65.76;101272.06;5056229;28;45442;-72
2023/01/01 11:28:15;;;;;;;;;8.00;5.00;;;;;14.79;65.99;101272.06;5042099;28;45239;-76
2023/01/01 11:30:56;;;;;;;;;3.75;3.00;;;;;14.74;66.27;101253.41;5054548;28;45533;-72
2023/01/01 11:33:21;;;;;;;;;4.75;4.00;;;;;14.73;67.07;101259.75;5054194;28;45422;-72
2023/01/01 11:35:53;;;;;;;;;5.25;4.25;;;;;14.61;67.04;101231.63;5054341;28;45553;-74
2023/01/01 11:38:21;;;;;;;;;3.00;3.00;;;;;14.61;67.16;101241.53;5054003;28;45568;-73
2023/01/01 11:40:52;;;;;;;;;4.75;4.75;;;;;14.53;67.73;101217.69;5035861;28;46073;-73
2023/01/01 11:43:23;;;;;;;;;5.00;4.75;;;;;14.60;67.26;101229.88;5044485;28;45599;-73
2023/01/01 11:45:48;;;;;;;;;4.25;3.75;;;;;14.66;67.91;101220.56;5025990;28;45432;-79
2023/01/01 11:48:19;;;;;;;;;5.25;5.25;;;;;14.65;67.70;101219.69;5055523;28;45393;-76
2023/01/01 11:51:06;;;;;;;;;5.00;5.00;;;;;14.67;67.74;101217.78;5054277;28;45578;-77
2023/01/01 11:53:40;;;;;;;;;5.75;4.75;;;;;14.60;67.34;101196.63;5054451;28;45367;-74
2023/01/01 11:56:14;;;;;;;;;6.00;6.00;;;;;14.65;67.17;101203.50;5054017;28;45411;-82
2023/01/01 11:58:50;;;;;;;;;4.75;4.75;;;;;14.67;67.38;101193.50;5044469;28;46596;-76
2023/01/01 12:01:31;;;;;;;;;1.50;1.50;;;;;14.72;67.42;101191.41;5028789;28;47379;-77
2023/01/01 12:04:04;;;;;;;;;5.50;4.25;;;;;14.75;67.41;101196.63;5054260;28;45516;-76
2023/01/01 12:06:35;;;;;;;;;3.75;3.75;;;;;14.76;67.34;101179.50;5054115;28;45247;-77
2023/01/01 12:09:13;;;;;;;;;8.00;6.25;;;;;14.68;67.33;101180.88;5054375;28;45391;-79
2023/01/01 12:11:50;;;;;;;;;7.25;5.75;;;;;14.67;67.91;101192.63;5054651;28;45328;-77
2023/01/01 12:14:41;;;;;;;;;3.50;2.50;;;;;14.67;67.70;101189.91;5038911;28;45372;-77
2023/01/01 12:17:19;;;;;;;;;9.00;6.50;;;;;14.69;67.18;101196.13;5048187;28;45257;-75
2023/01/01 12:19:55;;;;;;;;;8.75;7.50;;;;;14.64;67.97;101195.47;5055560;28;45221;-77
2023/01/01 12:22:21;;;;;;;;;7.00;5.50;;;;;14.59;67.67;101203.84;5057590;28;46246;-76
2023/01/01 12:24:48;;;;;;;;;7.75;6.25;;;;;14.58;68.42;101193.13;5057562;28;45342;-75
2023/01/01 12:27:32;;;;;;;;;5.50;5.50;;;;;14.56;68.23;101189.63;5058279;28;45507;-78
2023/01/01 12:30:22;;;;;;;;;6.25;5.25;;;;;14.56;68.01;101178.84;5058890;28;45563;-77
2023/01/01 12:33:38;;;;;;;;;8.50;5.75;;;;;14.53;68.32;101173.63;5058399;28;45342;-76
2023/01/01 12:36:27;;;;;;;;;7.25;7.25;;;;;14.51;68.35;101171.03;5037303;28;46128;-77
2023/01/01 12:39:30;;;;;;;;;5.75;5.75;;;;;14.53;68.45;101168.25;5057617;28;45561;-76
2023/01/01 12:42:10;;;;;;;;;5.25;5.25;;;;;14.53;68.33;101162.84;5057393;28;45303;-74
2023/01/01 12:44:47;;;;;;;;;11.50;7.00;;;;;14.56;68.50;101158.13;5044893;28;46288;-75
2023/01/01 12:47:15;;;;;;;;;12.00;7.00;;;;;14.58;68.46;101161.63;5055976;28;45533;-75
2023/01/01 12:50:12;;;;;;;;;10.50;6.50;;;;;14.58;68.45;101134.66;5038501;28;45374;-74
2023/01/01 12:53:01;;;;;;;;;6.50;5.75;;;;;14.63;68.54;101143.34;5052020;28;45616;-75
2023/01/01 12:55:50;;;;;;;;;6.25;4.50;;;;;14.62;68.94;101147.03;5057670;28;45465;-74
2023/01/01 12:58:29;;;;;;;;;5.50;5.50;;;;;14.62;69.22;101138.06;5057397;28;45494;-76
2023/01/01 13:01:10;;;;;;;;;7.75;6.00;;;;;14.58;69.41;101126.53;5058397;28;45474;-74
2023/01/01 13:03:48;;;;;;;;;6.75;6.50;;;;;14.69;69.48;101142.13;5053595;28;45482;-77
2023/01/01 13:06:17;;;;;;;;;10.25;6.50;;;;;14.66;69.75;101131.50;5046507;28;47722;-75
2023/01/01 13:08:49;;;;;;;;;4.75;4.75;;;;;14.68;70.05;101133.16;5051423;28;45575;-76
2023/01/01 13:11:15;;;;;;;;;7.50;7.25;;;;;14.70;70.53;101131.25;5033937;28;46171;-76
2023/01/01 13:13:41;;;;;;;;;9.25;8.25;;;;;14.74;70.41;101135.50;5038153;28;45584;-77
2023/01/01 13:16:11;;;;;;;;;8.50;8.50;;;;;14.75;70.49;101133.69;5040442;28;49073;-78
2023/01/01 13:18:37;;;;;;;;;8.00;8.00;;;;;14.74;70.34;101129.25;5057435;28;45395;-75
2023/01/01 13:21:15;;;;;;;;;8.00;6.25;;;;;14.74;70.79;101121.16;5037023;28;45439;-74
2023/01/01 13:23:42;;;;;;;;;6.25;6.00;;;;;14.72;70.88;101115.81;5052751;28;45456;-74
2023/01/01 13:26:16;;;;;;;;;8.00;5.50;;;;;14.71;71.19;101111.41;5055828;28;46176;-74
2023/01/01 13:28:41;;;;;;;;;9.50;9.50;;;;;14.65;71.71;101098.25;5046897;28;45486;-83
2023/01/01 13:31:07;;;;;;;;;11.25;7.25;;;;;14.67;72.08;101104.44;5039151;28;45502;-82
2023/01/01 13:33:33;;;;;;;;;8.00;8.00;;;;;14.68;71.92;101110.72;5055584;28;46786;-82
2023/01/01 13:36:08;;;;;;;;;16.50;9.50;;;;;14.68;71.85;101102.63;5053387;28;46082;-81
2023/01/01 13:38:48;;;;;;;;;9.25;8.00;;;;;14.65;72.30;101097.38;5053678;28;45332;-74
2023/01/01 13:41:25;;;;;;;;;7.75;7.75;;;;;14.56;72.82;101108.69;5038500;28;45388;-77
2023/01/01 13:44:00;;;;;;;;;10.00;10.00;;;;;14.56;73.04;101093.38;5053746;28;45540;-80
2023/01/01 13:46:42;;;;;;;;;11.00;9.75;;;;;14.53;73.16;101098.97;5039772;28;45395;-73
2023/01/01 13:49:31;;;;;;;;;11.50;8.50;;;;;14.46;73.53;101083.22;5047730;28;45464;-76
2023/01/01 13:52:28;;;;;;;;;8.00;8.00;;;;;14.49;73.60;101078.50;5056352;28;45443;-78
2023/01/01 13:55:22;;;;;;;;;11.50;9.25;;;;;14.50;74.32;101071.28;5056432;28;45606;-77
2023/01/01 13:58:06;;;;;;;;;12.25;11.00;;;;;14.50;74.16;101063.19;5056243;28;46237;-75
2023/01/01 14:00:40;;;;;;;;;10.25;8.25;;;;;14.51;74.29;101059.53;5056000;28;45150;-78
2023/01/01 14:03:12;;;;;;;;;12.00;9.00;;;;;14.49;74.90;101059.63;5056265;28;45367;-77
2023/01/01 14:05:47;;;;;;;;;9.50;9.50;;;;;14.43;75.18;101034.81;5055182;28;46559;-77
2023/01/01 14:08:34;;;;;;;;;12.00;11.00;;;;;14.41;74.87;101026.81;5055821;28;45545;-77
2023/01/01 14:11:01;;;;;;;;;9.50;8.25;;;;;14.44;74.71;101029.34;5056233;28;45383;-77
2023/01/01 14:13:31;;;;;;;;;12.75;9.00;;;;;14.37;75.11;101007.19;5056376;28;45388;-80
2023/01/01 14:16:02;;;;;;;;;11.25;9.25;;;;;14.44;76.10;101001.50;5041186;28;47086;-80
2023/01/01 14:18:45;;;;;;;;;12.50;10.00;;;;;14.49;75.43;101008.34;5056528;28;45538;-76
2023/01/01 14:21:17;;;;;;;;;11.25;9.75;;;;;14.52;75.57;101016.28;5054669;28;45482;-74
2023/01/01 14:23:47;;;;;;;;;15.50;10.75;;;;;14.52;75.40;101016.28;5055691;28;45400;-74
2023/01/01 14:26:17;;;;;;;;;10.00;9.00;;;;;14.49;75.67;101008.34;5055868;28;45422;-76
2023/01/01 14:28:43;;;;;;;;;9.50;9.00;;;;;14.50;75.44;101015.50;5047631;28;45581;-75
2023/01/01 14:31:31;;;;;;;;;14.75;14.25;;;;;14.49;75.28;101015.56;5043574;28;45541;-75
2023/01/01 14:34:01;;;;;;;;;9.25;8.50;;;;;14.48;74.97;101006.63;5006268;28;45447;-74
2023/01/01 14:36:30;;;;;;;;;9.75;8.50;;;;;14.46;75.11;101005.81;5034114;28;45459;-74
2023/01/01 14:38:59;;;;;;;;;11.50;11.50;;;;;14.39;74.97;100997.22;5034242;28;46121;-73
2023/01/01 14:41:40;;;;;;;;;18.25;14.00;;;;;14.37;75.48;100992.88;5012436;28;45412;-73
2023/01/01 14:44:11;;;;;;;;;12.75;12.75;;;;;14.25;74.92;100980.06;5027982;28;45659;-71
2023/01/01 14:47:06;;;;;;;;;13.00;11.75;;;;;14.23;75.54;100976.59;5020742;28;45426;-70
2023/01/01 14:49:37;;;;;;;;;13.75;10.75;;;;;14.29;75.27;100992.44;5001108;28;47698;-72
2023/01/01 14:52:24;;;;;;;;;12.50;8.75;;;;;14.25;75.58;100980.94;5012127;28;45583;-71
2023/01/01 14:54:51;;;;;;;;;13.75;10.25;;;;;14.16;75.50;100956.31;5018600;28;45365;-72
2023/01/01 14:57:23;;;;;;;;;17.25;14.00;;;;;14.12;75.31;100950.22;5029301;28;45370;-71
2023/01/01 14:59:54;;;;;;;;;9.50;9.50;;;;;14.20;75.50;100972.25;5017260;28;46514;-74
2023/01/01 15:02:25;;;;;;;;;18.75;13.25;;;;;14.23;75.59;100974.75;5034378;28;45462;-73
2023/01/01 15:04:50;;;;;;;;;17.00;12.25;;;;;14.13;75.38;100967.28;5017653;28;45351;-74
2023/01/01 15:07:30;;;;;;;;;15.50;14.00;;;;;14.18;75.24;100967.91;5017264;28;46070;-76
2023/01/01 15:10:02;;;;;;;;;14.25;12.00;;;;;14.11;75.24;100948.50;5017095;28;47444;-73
2023/01/01 15:12:29;;;;;;;;;14.25;10.75;;;;;14.12;75.81;100936.75;5014114;28;45380;-74
2023/01/01 15:14:56;;;;;;;;;15.75;14.75;;;;;14.16;75.43;100943.72;5019849;28;45430;-74
2023/01/01 15:17:24;;;;;;;;;16.75;12.50;;;;;14.23;75.71;100961.28;5035787;28;45374;-73
2023/01/01 15:20:16;;;;;;;;;14.00;10.00;;;;;14.02;75.68;100919.38;5035321;28;46222;-73
2023/01/01 15:22:43;;;;;;;;;14.50;11.25;;;;;14.25;75.57;100951.28;5015441;28;45425;-74
2023/01/01 15:25:18;;;;;;;;;11.25;10.00;;;;;14.26;75.13;100944.06;5016921;28;45475;-73
2023/01/01 15:27:50;;;;;;;;;13.00;11.00;;;;;14.28;75.14;100931.38;5035464;28;45679;-73
2023/01/01 15:30:32;;;;;;;;;13.50;10.75;;;;;14.30;75.30;100919.50;5034260;28;45611;-72
2023/01/01 15:33:07;;;;;;;;;8.50;8.00;;;;;14.28;75.16;100907.97;5034496;28;45462;-74
2023/01/01 15:35:33;;;;;;;;;14.25;8.50;;;;;14.34;74.89;100904.91;5034462;28;45395;-73
2023/01/01 15:38:09;;;;;;;;;12.25;11.75;;;;;14.31;75.00;100910.47;5016253;28;45564;-73
2023/01/01 15:40:35;;;;;;;;;12.00;12.00;;;;;14.27;74.52;100908.03;5035034;28;46175;-73
2023/01/01 15:43:00;;;;;;;;;15.50;14.00;;;;;14.34;75.07;100912.13;5035074;28;45475;-71
2023/01/01 15:45:40;;;;;;;;;12.00;11.25;;;;;14.33;74.53;100907.69;5029172;28;45490;-70
2023/01/01 15:48:05;;;;;;;;;15.00;13.50;;;;;14.30;74.24;100905.16;5026739;28;45395;-70
2023/01/01 15:50:42;;;;;;;;;11.25;10.50;;;;;14.28;74.16;100901.69;5023861;28;46562;-71
2023/01/01 15:53:26;;;;;;;;;15.25;10.75;;;;;14.27;74.53;100895.44;5027779;28;45352;-72
2023/01/01 15:55:56;;;;;;;;;16.50;13.50;;;;;14.08;74.14;100892.06;5033995;28;45568;-73
2023/01/01 15:58:27;;;;;;;;;15.75;14.25;;;;;14.13;74.38;100905.25;5029524;28;46461;-73
2023/01/01 16:00:56;;;;;;;;;18.00;13.00;;;;;14.10;74.93;100887.47;5015483;28;47045;-72
2023/01/01 16:03:24;;;;;;;;;18.75;15.75;;;;;14.15;75.02;100892.56;5033859;28;45425;-72
2023/01/01 16:05:54;;;;;;;;;17.00;15.75;;;;;14.19;74.63;100904.94;5016749;28;45402;-70
2023/01/01 16:08:20;;;;;;;;;16.25;12.25;;;;;14.11;74.47;100888.34;5021794;28;45387;-75
2023/01/01 16:10:46;;;;;;;;;18.25;14.50;;;;;14.17;74.71;100874.47;5033879;28;45391;-77
2023/01/01 16:13:12;;;;;;;;;19.00;14.00;;;;;14.23;74.84;100858.81;5034307;28;45340;-73
2023/01/01 16:15:48;;;;;;;;;15.25;15.25;;;;;14.23;74.40;100863.31;5032624;28;45729;-74
2023/01/01 16:18:16;;;;;;;;;14.75;14.75;;;;;14.22;73.79;100872.38;5006434;28;46006;-75
2023/01/01 16:20:42;;;;;;;;;13.25;13.25;;;;;14.19;73.76;100865.34;5014317;28;47572;-73
2023/01/01 16:23:17;;;;;;;;;20.25;15.50;;;;;14.25;73.62;100872.19;5028964;28;45448;-74
2023/01/01 16:25:42;;;;;;;;;14.00;14.00;;;;;14.00;73.70;100844.00;5024923;28;45295;-76
2023/01/01 16:28:08;;;;;;;;;15.50;13.75;;;;;14.20;73.28;100867.09;5025427;28;45314;-72
2023/01/01 16:30:33;;;;;;;;;19.50;16.25;;;;;14.23;73.36;100876.81;5015944;28;46243;-74
2023/01/01 16:32:59;;;;;;;;;17.75;15.75;;;;;14.03;73.83;100848.34;5032590;28;45479;-75
2023/01/01 16:35:25;;;;;;;;;21.50;15.00;;;;;14.18;73.57;100860.91;5015852;28;45431;-72
2023/01/01 16:37:50;;;;;;;;;13.75;12.50;;;;;14.24;73.91;100865.06;5033799;28;45382;-74
2023/01/01 16:40:16;;;;;;;;;15.25;15.00;;;;;14.21;74.00;100854.44;5033605;28;45362;-71
2023/01/01 16:42:41;;;;;;;;;13.50;12.25;;;;;14.20;73.61;100840.13;5034008;28;45758;-74
2023/01/01 16:45:12;;;;;;;;;5.00;4.50;;;;;14.25;73.76;100838.03;5030455;28;45273;-72